sensor_id;sensor_type;location;lat;lon;timestamp;pressure;altitude;pressure_sealevel;temperature;humidity
63090;BME280;49174;43.198;27.824;2023-04-01T00:00:30;100832.03;;;4.60;100.00
63090;BME280;49174;43.198;27.824;2023-04-01T00:02:56;100827.00;;;4.57;100.00
63090;BME280;49174;43.198;27.824;2023-04-01T00:05:22;100834.84;;;4.59;100.00
63090;BME280;49174;43.198;27.824;2023-04-01T00:07:49;100834.13;;;4.57;100.00
63090;BME280;49174;43.198;27.824;2023-04-01T00:10:15;100826.50;;;4.62;100.00
63090;BME280;49174;43.198;27.824;2023-04-01T00:12:41;100832.66;;;4.54;100.00
63090;BME280;49174;43.198;27.824;2023-04-01T00:15:08;100833.78;;;4.52;100.00
63090;BME280;49174;43.198;27.824;2023-04-01T00:17:34;100824.78;;;4.53;100.00
63090;BME280;49174;43.198;27.824;2023-04-01T00:20:00;100823.31;;;4.58;100.00
63090;BME280;49174;43.198;27.824;2023-04-01T00:22:26;100828.50;;;4.60;100.00
63090;BME280;49174;43.198;27.824;2023-04-01T00:24:52;100815.91;;;4.52;100.00
63090;BME280;49174;43.198;27.824;2023-04-01T00:27:19;100825.59;;;4.53;100.00
63090;BME280;49174;43.198;27.824;2023-04-01T00:29:45;100826.22;;;4.47;100.00
63090;BME280;49174;43.198;27.824;2023-04-01T00:32:12;100819.38;;;4.44;100.00
63090;BME280;49174;43.198;27.824;2023-04-01T00:34:38;100821.50;;;4.41;100.00
63090;BME280;49174;43.198;27.824;2023-04-01T00:37:05;100813.63;;;4.39;100.00
63090;BME280;49174;43.198;27.824;2023-04-01T00:39:31;100811.13;;;4.38;100.00
63090;BME280;49174;43.198;27.824;2023-04-01T00:41:59;100810.84;;;4.41;100.00
63090;BME280;49174;43.198;27.824;2023-04-01T00:44:28;100805.31;;;4.42;100.00
63090;BME280;49174;43.198;27.824;2023-04-01T00:46:54;100789.47;;;4.41;100.00
63090;BME280;49174;43.198;27.824;2023-04-01T00:49:23;100792.06;;;4.33;100.00
63090;BME280;49174;43.198;27.824;2023-04-01T00:51:53;100792.69;;;4.27;100.00
63090;BME280;49174;43.198;27.824;2023-04-01T00:54:21;100786.22;;;4.37;100.00
63090;BME280;49174;43.198;27.824;2023-04-01T00:56:50;100782.72;;;4.55;100.00
63090;BME280;49174;43.198;27.824;2023-04-01T00:59:24;100789.84;;;4.46;100.00
63090;BME280;49174;43.198;27.824;2023-04-01T01:01:51;100794.50;;;4.44;100.00
63090;BME280;49174;43.198;27.824;2023-04-01T01:04:28;100798.69;;;4.46;100.00
63090;BME280;49174;43.198;27.824;2023-04-01T01:12:40;100792.91;;;4.33;100.00
63090;BME280;49174;43.198;27.824;2023-04-01T01:15:21;100797.16;;;4.26;100.00
63090;BME280;49174;43.198;27.824;2023-04-01T01:17:58;100798.63;;;4.20;100.00
63090;BME280;49174;43.198;27.824;2023-04-01T01:20:34;100786.78;;;4.23;100.00
63090;BME280;49174;43.198;27.824;2023-04-01T01:25:48;100780.53;;;4.32;100.00
63090;BME280;49174;43.198;27.824;2023-04-01T01:33:48;100780.16;;;4.27;100.00
63090;BME280;49174;43.198;27.824;2023-04-01T01:36:17;100776.34;;;4.30;100.00
63090;BME280;49174;43.198;27.824;2023-04-01T01:38:47;100780.47;;;4.24;100.00
63090;BME280;49174;43.198;27.824;2023-04-01T01:41:16;100781.25;;;4.16;100.00
63090;BME280;49174;43.198;27.824;2023-04-01T01:43:46;100785.38;;;4.11;100.00
63090;BME280;49174;43.198;27.824;2023-04-01T01:46:23;100779.13;;;4.02;100.00
63090;BME280;49174;43.198;27.824;2023-04-01T01:48:50;100777.38;;;3.93;100.00
63090;BME280;49174;43.198;27.824;2023-04-01T01:51:18;100779.75;;;3.96;100.00
63090;BME280;49174;43.198;27.824;2023-04-01T01:53:44;100779.88;;;3.94;100.00
63090;BME280;49174;43.198;27.824;2023-04-01T01:56:11;100783.38;;;3.95;100.00
63090;BME280;49174;43.198;27.824;2023-04-01T01:58:41;100783.25;;;3.96;100.00
63090;BME280;49174;43.198;27.824;2023-04-01T02:01:15;100794.69;;;3.89;100.00
63090;BME280;49174;43.198;27.824;2023-04-01T02:03:43;100784.09;;;3.79;100.00
63090;BME280;49174;43.198;27.824;2023-04-01T02:06:15;100781.66;;;3.68;100.00
63090;BME280;49174;43.198;27.824;2023-04-01T02:09:00;100770.28;;;3.66;100.00
63090;BME280;49174;43.198;27.824;2023-04-01T02:11:47;100771.53;;;3.62;100.00
63090;BME280;49174;43.198;27.824;2023-04-01T02:19:18;100754.63;;;3.53;100.00
63090;BME280;49174;43.198;27.824;2023-04-01T02:21:50;100753.59;;;3.36;100.00
63090;BME280;49174;43.198;27.824;2023-04-01T02:24:20;100749.19;;;3.27;100.00
63090;BME280;49174;43.198;27.824;2023-04-01T02:26:50;100752.59;;;3.19;100.00
63090;BME280;49174;43.198;27.824;2023-04-01T02:29:18;100757.97;;;3.09;100.00
63090;BME280;49174;43.198;27.824;2023-04-01T02:31:45;100763.03;;;3.03;100.00
63090;BME280;49174;43.198;27.824;2023-04-01T02:34:10;100755.88;;;3.03;100.00
63090;BME280;49174;43.198;27.824;2023-04-01T02:36:36;100751.78;;;3.09;100.00
63090;BME280;49174;43.198;27.824;2023-04-01T02:39:03;100749.69;;;3.12;100.00
63090;BME280;49174;43.198;27.824;2023-04-01T02:41:30;100741.78;;;3.21;100.00
63090;BME280;49174;43.198;27.824;2023-04-01T02:43:56;100737.50;;;3.28;100.00
63090;BME280;49174;43.198;27.824;2023-04-01T02:46:24;100731.44;;;3.35;100.00
63090;BME280;49174;43.198;27.824;2023-04-01T02:48:50;100721.34;;;3.57;100.00
63090;BME280;49174;43.198;27.824;2023-04-01T02:51:15;100721.84;;;3.61;100.00
63090;BME280;49174;43.198;27.824;2023-04-01T02:53:41;100718.56;;;3.67;100.00
63090;BME280;49174;43.198;27.824;2023-04-01T02:56:06;100714.16;;;3.75;100.00
63090;BME280;49174;43.198;27.824;2023-04-01T02:58:32;100707.22;;;3.83;100.00
63090;BME280;49174;43.198;27.824;2023-04-01T03:00:57;100710.09;;;3.89;100.00
63090;BME280;49174;43.198;27.824;2023-04-01T03:03:23;100708.25;;;3.90;100.00
63090;BME280;49174;43.198;27.824;2023-04-01T03:05:48;100706.66;;;3.97;100.00
63090;BME280;49174;43.198;27.824;2023-04-01T03:08:14;100693.44;;;3.95;100.00
63090;BME280;49174;43.198;27.824;2023-04-01T03:10:40;100703.69;;;4.00;100.00
63090;BME280;49174;43.198;27.824;2023-04-01T03:13:05;100695.97;;;3.97;100.00
63090;BME280;49174;43.198;27.824;2023-04-01T03:15:31;100694.63;;;3.93;100.00
63090;BME280;49174;43.198;27.824;2023-04-01T03:17:57;100689.75;;;3.88;100.00
63090;BME280;49174;43.198;27.824;2023-04-01T03:20:22;100696.13;;;3.95;100.00
63090;BME280;49174;43.198;27.824;2023-04-01T03:22:48;100680.41;;;3.92;100.00
63090;BME280;49174;43.198;27.824;2023-04-01T03:25:13;100675.56;;;3.88;100.00
63090;BME280;49174;43.198;27.824;2023-04-01T03:27:39;100677.38;;;3.87;100.00
63090;BME280;49174;43.198;27.824;2023-04-01T03:30:05;100690.19;;;3.84;100.00
63090;BME280;49174;43.198;27.824;2023-04-01T03:32:32;100676.03;;;3.83;100.00
63090;BME280;49174;43.198;27.824;2023-04-01T03:34:57;100671.38;;;3.85;100.00
63090;BME280;49174;43.198;27.824;2023-04-01T03:37:23;100669.69;;;3.84;100.00
63090;BME280;49174;43.198;27.824;2023-04-01T03:39:49;100675.78;;;3.94;100.00
63090;BME280;49174;43.198;27.824;2023-04-01T03:42:14;100672.28;;;3.94;100.00
63090;BME280;49174;43.198;27.824;2023-04-01T03:44:40;100676.72;;;3.85;100.00
63090;BME280;49174;43.198;27.824;2023-04-01T03:47:05;100680.97;;;3.78;100.00
63090;BME280;49174;43.198;27.824;2023-04-01T03:49:31;100675.88;;;3.85;100.00
63090;BME280;49174;43.198;27.824;2023-04-01T03:51:58;100677.03;;;3.82;100.00
63090;BME280;49174;43.198;27.824;2023-04-01T03:54:24;100682.69;;;3.79;100.00
63090;BME280;49174;43.198;27.824;2023-04-01T03:56:49;100683.50;;;3.79;100.00
63090;BME280;49174;43.198;27.824;2023-04-01T03:59:15;100686.31;;;3.78;100.00
63090;BME280;49174;43.198;27.824;2023-04-01T04:01:40;100692.97;;;3.74;100.00
63090;BME280;49174;43.198;27.824;2023-04-01T04:04:06;100690.75;;;3.69;100.00
63090;BME280;49174;43.198;27.824;2023-04-01T04:06:32;100696.53;;;3.65;100.00
63090;BME280;49174;43.198;27.824;2023-04-01T04:08:58;100683.50;;;3.62;100.00
63090;BME280;49174;43.198;27.824;2023-04-01T04:11:24;100681.75;;;3.52;100.00
63090;BME280;49174;43.198;27.824;2023-04-01T04:13:49;100684.28;;;3.54;100.00
63090;BME280;49174;43.198;27.824;2023-04-01T04:16:16;100680.31;;;3.58;100.00
63090;BME280;49174;43.198;27.824;2023-04-01T04:18:42;100681.66;;;3.62;100.00
63090;BME280;49174;43.198;27.824;2023-04-01T04:21:12;100682.06;;;3.67;100.00
63090;BME280;49174;43.198;27.824;2023-04-01T04:23:37;100695.78;;;3.72;100.00
63090;BME280;49174;43.198;27.824;2023-04-01T04:26:06;100692.41;;;3.88;100.00
63090;BME280;49174;43.198;27.824;2023-04-01T04:28:32;100686.44;;;3.94;100.00
63090;BME280;49174;43.198;27.824;2023-04-01T04:30:57;100689.19;;;4.02;100.00
63090;BME280;49174;43.198;27.824;2023-04-01T04:33:23;100684.66;;;4.21;100.00
63090;BME280;49174;43.198;27.824;2023-04-01T04:35:49;100672.69;;;4.33;100.00
63090;BME280;49174;43.198;27.824;2023-04-01T04:38:15;100671.09;;;4.40;100.00
63090;BME280;49174;43.198;27.824;2023-04-01T04:40:54;100670.53;;;4.63;100.00
63090;BME280;49174;43.198;27.824;2023-04-01T04:43:20;100670.06;;;4.76;100.00
63090;BME280;49174;43.198;27.824;2023-04-01T04:45:46;100671.63;;;4.86;100.00
63090;BME280;49174;43.198;27.824;2023-04-01T04:48:14;100672.50;;;5.03;100.00
63090;BME280;49174;43.198;27.824;2023-04-01T04:50:47;100665.34;;;5.20;100.00
63090;BME280;49174;43.198;27.824;2023-04-01T04:53:14;100659.88;;;5.30;100.00
63090;BME280;49174;43.198;27.824;2023-04-01T04:55:48;100669.25;;;5.42;100.00
63090;BME280;49174;43.198;27.824;2023-04-01T04:58:17;100661.72;;;5.54;100.00
63090;BME280;49174;43.198;27.824;2023-04-01T05:00:43;100667.44;;;5.67;100.00
63090;BME280;49174;43.198;27.824;2023-04-01T05:03:09;100669.63;;;5.80;100.00
63090;BME280;49174;43.198;27.824;2023-04-01T05:05:35;100658.94;;;5.96;100.00
63090;BME280;49174;43.198;27.824;2023-04-01T05:08:01;100656.41;;;6.11;100.00
63090;BME280;49174;43.198;27.824;2023-04-01T05:10:26;100657.91;;;6.22;100.00
63090;BME280;49174;43.198;27.824;2023-04-01T05:12:52;100657.69;;;6.32;100.00
63090;BME280;49174;43.198;27.824;2023-04-01T05:15:17;100660.03;;;6.35;100.00
63090;BME280;49174;43.198;27.824;2023-04-01T05:17:43;100658.47;;;6.48;100.00
63090;BME280;49174;43.198;27.824;2023-04-01T05:20:09;100657.94;;;6.61;100.00
63090;BME280;49174;43.198;27.824;2023-04-01T05:22:35;100657.22;;;6.76;100.00
63090;BME280;49174;43.198;27.824;2023-04-01T05:25:00;100637.22;;;6.86;100.00
63090;BME280;49174;43.198;27.824;2023-04-01T05:27:26;100644.06;;;6.97;100.00
63090;BME280;49174;43.198;27.824;2023-04-01T05:29:51;100639.47;;;7.06;100.00
63090;BME280;49174;43.198;27.824;2023-04-01T05:32:17;100631.72;;;7.11;100.00
63090;BME280;49174;43.198;27.824;2023-04-01T05:34:42;100640.94;;;7.16;100.00
63090;BME280;49174;43.198;27.824;2023-04-01T05:37:08;100630.97;;;7.25;100.00
63090;BME280;49174;43.198;27.824;2023-04-01T05:39:37;100629.53;;;7.37;100.00
63090;BME280;49174;43.198;27.824;2023-04-01T05:42:05;100613.25;;;7.39;100.00
63090;BME280;49174;43.198;27.824;2023-04-01T05:44:31;100620.28;;;7.40;100.00
63090;BME280;49174;43.198;27.824;2023-04-01T05:46:57;100615.16;;;7.53;100.00
63090;BME280;49174;43.198;27.824;2023-04-01T05:49:22;100615.03;;;7.70;100.00
63090;BME280;49174;43.198;27.824;2023-04-01T05:51:48;100613.84;;;7.87;100.00
63090;BME280;49174;43.198;27.824;2023-04-01T05:54:13;100614.72;;;8.02;100.00
63090;BME280;49174;43.198;27.824;2023-04-01T05:56:39;100604.44;;;8.21;100.00
63090;BME280;49174;43.198;27.824;2023-04-01T05:59:04;100599.56;;;8.39;100.00
63090;BME280;49174;43.198;27.824;2023-04-01T06:01:30;100600.22;;;8.56;100.00
63090;BME280;49174;43.198;27.824;2023-04-01T06:03:56;100589.69;;;8.76;100.00
63090;BME280;49174;43.198;27.824;2023-04-01T06:06:26;100594.47;;;8.95;100.00
63090;BME280;49174;43.198;27.824;2023-04-01T06:08:53;100592.56;;;9.11;100.00
63090;BME280;49174;43.198;27.824;2023-04-01T06:11:51;100595.50;;;9.16;100.00
63090;BME280;49174;43.198;27.824;2023-04-01T06:20:36;100580.97;;;9.32;100.00
63090;BME280;49174;43.198;27.824;2023-04-01T06:26:16;100582.59;;;9.48;100.00
63090;BME280;49174;43.198;27.824;2023-04-01T06:32:02;100579.38;;;9.59;100.00
63090;BME280;49174;43.198;27.824;2023-04-01T06:54:25;100556.44;;;10.81;100.00
63090;BME280;49174;43.198;27.824;2023-04-01T06:56:59;100563.56;;;11.02;100.00
63090;BME280;49174;43.198;27.824;2023-04-01T06:59:28;100564.19;;;11.10;100.00
63090;BME280;49174;43.198;27.824;2023-04-01T07:01:58;100566.94;;;11.24;100.00
63090;BME280;49174;43.198;27.824;2023-04-01T07:04:29;100572.53;;;11.42;99.54
63090;BME280;49174;43.198;27.824;2023-04-01T07:09:41;100571.09;;;11.66;99.17
63090;BME280;49174;43.198;27.824;2023-04-01T07:14:58;100553.63;;;12.08;98.60
63090;BME280;49174;43.198;27.824;2023-04-01T07:17:35;100554.84;;;12.26;96.38
63090;BME280;49174;43.198;27.824;2023-04-01T07:22:48;100551.41;;;12.50;92.11
63090;BME280;49174;43.198;27.824;2023-04-01T07:25:20;100560.78;;;12.55;90.68
63090;BME280;49174;43.198;27.824;2023-04-01T07:27:46;100553.88;;;12.59;90.14
63090;BME280;49174;43.198;27.824;2023-04-01T07:30:20;100549.72;;;12.63;90.21
63090;BME280;49174;43.198;27.824;2023-04-01T07:32:51;100558.03;;;12.68;89.85
63090;BME280;49174;43.198;27.824;2023-04-01T07:35:54;100558.38;;;12.78;87.78
63090;BME280;49174;43.198;27.824;2023-04-01T07:55:42;100525.44;;;12.81;88.91
63090;BME280;49174;43.198;27.824;2023-04-01T08:01:00;100511.19;;;12.99;87.91
63090;BME280;49174;43.198;27.824;2023-04-01T08:09:06;100501.00;;;13.76;87.10
63090;BME280;49174;43.198;27.824;2023-04-01T08:22:20;100483.81;;;14.56;84.44
63090;BME280;49174;43.198;27.824;2023-04-01T08:24:48;100473.06;;;14.80;82.29
63090;BME280;49174;43.198;27.824;2023-04-01T08:29:53;100463.69;;;15.17;81.46
63090;BME280;49174;43.198;27.824;2023-04-01T08:32:28;100466.28;;;15.12;79.70
63090;BME280;49174;43.198;27.824;2023-04-01T08:35:07;100473.38;;;15.13;79.78
63090;BME280;49174;43.198;27.824;2023-04-01T08:37:37;100474.88;;;15.09;78.38
63090;BME280;49174;43.198;27.824;2023-04-01T08:43:00;100464.41;;;15.25;79.64
63090;BME280;49174;43.198;27.824;2023-04-01T08:45:53;100461.69;;;15.36;79.04
63090;BME280;49174;43.198;27.824;2023-04-01T08:48:34;100452.72;;;15.48;79.16
63090;BME280;49174;43.198;27.824;2023-04-01T08:51:16;100464.31;;;15.67;77.26
63090;BME280;49174;43.198;27.824;2023-04-01T08:56:18;100459.50;;;16.21;75.14
63090;BME280;49174;43.198;27.824;2023-04-01T09:09:37;100441.69;;;16.70;70.94
63090;BME280;49174;43.198;27.824;2023-04-01T09:43:25;100392.88;;;17.14;72.58
63090;BME280;49174;43.198;27.824;2023-04-01T09:46:10;100384.59;;;17.26;71.69
63090;BME280;49174;43.198;27.824;2023-04-01T09:51:55;100382.81;;;17.54;69.85
63090;BME280;49174;43.198;27.824;2023-04-01T10:06:45;100334.81;;;18.24;68.77
63090;BME280;49174;43.198;27.824;2023-04-01T10:22:56;100325.03;;;18.01;65.66
63090;BME280;49174;43.198;27.824;2023-04-01T10:25:37;100322.72;;;18.15;65.95
63090;BME280;49174;43.198;27.824;2023-04-01T10:40:04;100305.66;;;18.62;65.20
63090;BME280;49174;43.198;27.824;2023-04-01T10:46:21;100297.72;;;18.92;65.43
63090;BME280;49174;43.198;27.824;2023-04-01T10:54:43;100287.22;;;19.22;65.18
63090;BME280;49174;43.198;27.824;2023-04-01T11:35:53;100245.44;;;17.65;68.17
63090;BME280;49174;43.198;27.824;2023-04-01T11:46:16;100233.00;;;17.74;68.00
63090;BME280;49174;43.198;27.824;2023-04-01T11:51:32;100226.38;;;18.19;68.54
63090;BME280;49174;43.198;27.824;2023-04-01T11:57:13;100212.69;;;18.51;65.42
63090;BME280;49174;43.198;27.824;2023-04-01T12:00:00;100216.81;;;18.54;65.30
63090;BME280;49174;43.198;27.824;2023-04-01T12:19:47;100187.78;;;17.78;66.54
63090;BME280;49174;43.198;27.824;2023-04-01T12:22:45;100182.06;;;17.80;66.92
63090;BME280;49174;43.198;27.824;2023-04-01T12:33:42;100196.94;;;16.62;71.08
63090;BME280;49174;43.198;27.824;2023-04-01T12:36:35;100182.25;;;16.80;70.17
63090;BME280;49174;43.198;27.824;2023-04-01T12:47:13;100185.03;;;16.85;72.20
63090;BME280;49174;43.198;27.824;2023-04-01T12:52:56;100185.34;;;16.50;72.89
63090;BME280;49174;43.198;27.824;2023-04-01T12:55:39;100185.25;;;16.45;72.09
63090;BME280;49174;43.198;27.824;2023-04-01T12:58:40;100183.13;;;16.30;73.38
63090;BME280;49174;43.198;27.824;2023-04-01T13:01:29;100172.88;;;16.20;74.25
63090;BME280;49174;43.198;27.824;2023-04-01T13:15:33;100163.03;;;15.40;76.37
63090;BME280;49174;43.198;27.824;2023-04-01T13:20:58;100163.22;;;14.69;79.84
63090;BME280;49174;43.198;27.824;2023-04-01T13:26:22;100157.31;;;14.72;81.63
63090;BME280;49174;43.198;27.824;2023-04-01T13:29:27;100153.59;;;14.90;81.80
63090;BME280;49174;43.198;27.824;2023-04-01T13:43:02;100126.41;;;15.59;77.98
63090;BME280;49174;43.198;27.824;2023-04-01T13:45:47;100123.41;;;15.73;77.59
63090;BME280;49174;43.198;27.824;2023-04-01T13:56:34;100115.97;;;15.85;76.52
63090;BME280;49174;43.198;27.824;2023-04-01T14:02:06;100110.06;;;15.88;76.88
63090;BME280;49174;43.198;27.824;2023-04-01T14:04:53;100104.13;;;15.91;75.68
63090;BME280;49174;43.198;27.824;2023-04-01T14:10:17;100115.25;;;15.73;75.98
63090;BME280;49174;43.198;27.824;2023-04-01T14:15:49;100106.84;;;15.46;77.87
63090;BME280;49174;43.198;27.824;2023-04-01T14:26:26;100104.97;;;15.17;79.07
63090;BME280;49174;43.198;27.824;2023-04-01T14:32:32;100104.88;;;15.12;79.99
63090;BME280;49174;43.198;27.824;2023-04-01T14:43:36;100108.88;;;14.81;81.04
63090;BME280;49174;43.198;27.824;2023-04-01T14:49:18;100089.78;;;14.64;81.01
63090;BME280;49174;43.198;27.824;2023-04-01T14:51:45;100081.53;;;14.59;82.14
63090;BME280;49174;43.198;27.824;2023-04-01T14:56:42;100070.69;;;14.59;81.74
63090;BME280;49174;43.198;27.824;2023-04-01T15:04:44;100049.44;;;14.56;82.25
63090;BME280;49174;43.198;27.824;2023-04-01T15:19:00;100054.84;;;14.68;81.50
63090;BME280;49174;43.198;27.824;2023-04-01T15:24:14;100052.66;;;14.82;80.28
63090;BME280;49174;43.198;27.824;2023-04-01T15:32:13;100050.44;;;14.79;80.23
63090;BME280;49174;43.198;27.824;2023-04-01T15:34:48;100049.03;;;14.76;80.25
63090;BME280;49174;43.198;27.824;2023-04-01T15:39:57;100033.97;;;14.57;79.94
63090;BME280;49174;43.198;27.824;2023-04-01T15:48:17;100019.78;;;14.02;82.66
63090;BME280;49174;43.198;27.824;2023-04-01T15:51:17;100014.72;;;13.82;83.47
63090;BME280;49174;43.198;27.824;2023-04-01T16:02:22;100044.59;;;12.99;88.26
63090;BME280;49174;43.198;27.824;2023-04-01T16:05:05;100049.09;;;12.86;88.88
63090;BME280;49174;43.198;27.824;2023-04-01T16:07:55;100058.91;;;12.87;89.87
63090;BME280;49174;43.198;27.824;2023-04-01T16:13:27;100069.72;;;12.87;89.46
63090;BME280;49174;43.198;27.824;2023-04-01T17:31:11;100050.75;;;12.57;92.53
63090;BME280;49174;43.198;27.824;2023-04-01T17:36:41;100048.03;;;12.57;93.66
63090;BME280;49174;43.198;27.824;2023-04-01T17:44:47;100036.81;;;12.53;94.00
63090;BME280;49174;43.198;27.824;2023-04-01T17:47:43;100038.50;;;12.55;95.27
63090;BME280;49174;43.198;27.824;2023-04-01T17:53:05;100049.63;;;12.65;96.28
63090;BME280;49174;43.198;27.824;2023-04-01T18:23:09;100070.50;;;12.21;100.00
63090;BME280;49174;43.198;27.824;2023-04-01T18:25:41;100075.38;;;12.12;100.00
63090;BME280;49174;43.198;27.824;2023-04-01T18:28:27;100061.03;;;12.30;100.00
63090;BME280;49174;43.198;27.824;2023-04-01T18:31:06;100064.88;;;12.41;100.00
63090;BME280;49174;43.198;27.824;2023-04-01T18:33:50;100065.84;;;12.46;100.00
63090;BME280;49174;43.198;27.824;2023-04-01T18:39:10;100079.28;;;12.53;100.00
63090;BME280;49174;43.198;27.824;2023-04-01T18:42:00;100086.06;;;12.44;100.00
63090;BME280;49174;43.198;27.824;2023-04-01T18:49:52;100088.09;;;12.48;97.12
63090;BME280;49174;43.198;27.824;2023-04-01T18:52:24;100096.44;;;12.47;97.04
63090;BME280;49174;43.198;27.824;2023-04-01T18:57:42;100118.16;;;12.40;97.65
63090;BME280;49174;43.198;27.824;2023-04-01T19:00:21;100119.09;;;12.27;98.65
63090;BME280;49174;43.198;27.824;2023-04-01T19:03:24;100111.81;;;12.28;100.00
63090;BME280;49174;43.198;27.824;2023-04-01T19:05:53;100121.88;;;12.21;99.66
63090;BME280;49174;43.198;27.824;2023-04-01T19:08:34;100131.19;;;12.25;99.49
63090;BME280;49174;43.198;27.824;2023-04-01T19:19:24;100141.84;;;12.20;100.00
63090;BME280;49174;43.198;27.824;2023-04-01T19:21:58;100143.53;;;12.21;100.00
63090;BME280;49174;43.198;27.824;2023-04-01T19:46:28;100172.56;;;12.32;100.00
63090;BME280;49174;43.198;27.824;2023-04-01T19:51:50;100169.69;;;12.27;100.00
63090;BME280;49174;43.198;27.824;2023-04-01T19:54:26;100174.09;;;12.21;98.90
63090;BME280;49174;43.198;27.824;2023-04-01T20:04:44;100212.69;;;12.10;98.53
63090;BME280;49174;43.198;27.824;2023-04-01T20:12:38;100214.81;;;12.01;98.25
63090;BME280;49174;43.198;27.824;2023-04-01T20:18:20;100194.66;;;11.97;98.99
63090;BME280;49174;43.198;27.824;2023-04-01T20:21:29;100185.91;;;12.02;99.36
63090;BME280;49174;43.198;27.824;2023-04-01T20:23:54;100191.31;;;12.02;98.50
63090;BME280;49174;43.198;27.824;2023-04-01T20:26:49;100190.69;;;12.00;99.09
63090;BME280;49174;43.198;27.824;2023-04-01T20:29:37;100199.75;;;11.87;100.00
63090;BME280;49174;43.198;27.824;2023-04-01T20:37:52;100211.06;;;11.71;100.00
63090;BME280;49174;43.198;27.824;2023-04-01T20:43:20;100208.00;;;11.92;100.00
63090;BME280;49174;43.198;27.824;2023-04-01T20:48:57;100203.84;;;11.96;99.92
63090;BME280;49174;43.198;27.824;2023-04-01T21:05:45;100215.88;;;11.62;100.00
63090;BME280;49174;43.198;27.824;2023-04-01T21:11:31;100229.47;;;11.49;100.00
63090;BME280;49174;43.198;27.824;2023-04-01T21:17:17;100264.19;;;11.45;100.00
63090;BME280;49174;43.198;27.824;2023-04-01T21:23:52;100267.50;;;11.40;100.00
63090;BME280;49174;43.198;27.824;2023-04-01T21:28:30;100276.81;;;11.51;100.00
63090;BME280;49174;43.198;27.824;2023-04-01T21:31:05;100272.63;;;11.55;100.00
63090;BME280;49174;43.198;27.824;2023-04-01T21:33:59;100275.97;;;11.57;100.00
63090;BME280;49174;43.198;27.824;2023-04-01T21:37:03;100278.44;;;11.66;100.00
63090;BME280;49174;43.198;27.824;2023-04-01T22:02:08;100286.06;;;11.24;100.00
63090;BME280;49174;43.198;27.824;2023-04-01T22:18:07;100310.19;;;11.18;100.00
63090;BME280;49174;43.198;27.824;2023-04-01T22:31:47;100318.47;;;11.24;100.00
63090;BME280;49174;43.198;27.824;2023-04-01T22:34:24;100317.63;;;11.30;100.00
63090;BME280;49174;43.198;27.824;2023-04-01T22:42:45;100335.53;;;11.11;100.00
63090;BME280;49174;43.198;27.824;2023-04-01T22:48:26;100341.34;;;11.14;100.00
63090;BME280;49174;43.198;27.824;2023-04-01T22:54:13;100333.00;;;11.23;100.00
63090;BME280;49174;43.198;27.824;2023-04-01T22:56:46;100342.38;;;11.20;100.00
63090;BME280;49174;43.198;27.824;2023-04-01T22:59:20;100344.66;;;11.23;100.00
63090;BME280;49174;43.198;27.824;2023-04-01T23:01:57;100341.91;;;11.36;100.00
63090;BME280;49174;43.198;27.824;2023-04-01T23:04:32;100334.44;;;11.45;97.33
63090;BME280;49174;43.198;27.824;2023-04-01T23:07:03;100345.63;;;11.49;95.14
63090;BME280;49174;43.198;27.824;2023-04-01T23:09:33;100341.66;;;11.51;94.07
63090;BME280;49174;43.198;27.824;2023-04-01T23:12:07;100333.75;;;11.50;92.85
63090;BME280;49174;43.198;27.824;2023-04-01T23:14:55;100336.69;;;11.48;92.71
63090;BME280;49174;43.198;27.824;2023-04-01T23:26:04;100346.69;;;11.28;93.06
63090;BME280;49174;43.198;27.824;2023-04-01T23:29:06;100344.00;;;11.28;93.39
63090;BME280;49174;43.198;27.824;2023-04-01T23:31:42;100337.81;;;11.21;93.16
63090;BME280;49174;43.198;27.824;2023-04-01T23:36:58;100341.13;;;11.16;91.50
63090;BME280;49174;43.198;27.824;2023-04-01T23:42:04;100343.00;;;11.15;89.62
63090;BME280;49174;43.198;27.824;2023-04-01T23:44:31;100348.81;;;11.12;90.50
63090;BME280;49174;43.198;27.824;2023-04-01T23:46:59;100354.88;;;11.01;89.87
63090;BME280;49174;43.198;27.824;2023-04-01T23:49:40;100355.06;;;11.00;88.63
63090;BME280;49174;43.198;27.824;2023-04-01T23:52:21;100357.53;;;10.94;88.11
63090;BME280;49174;43.198;27.824;2023-04-01T23:54:53;100358.81;;;10.85;87.92
63090;BME280;49174;43.198;27.824;2023-04-01T23:57:31;100353.22;;;10.73;89.02
